createdAt,value
2023-03-23T16:01:26.500Z,10.25
2023-03-23T16:06:32.702Z,10.27
2023-03-23T16:11:35.146Z,8.88
2023-03-23T16:16:53.267Z,10.25
2023-03-23T16:21:55.746Z,10.53
2023-03-23T16:26:58.688Z,9.23
2023-03-23T16:32:00.895Z,10.60
2023-03-23T16:37:03.188Z,10.25
2023-03-23T16:42:05.572Z,12.27
2023-03-23T16:47:07.825Z,12.93
2023-03-23T16:52:10.152Z,13.77
2023-03-23T16:57:13.123Z,15.82
2023-03-23T17:02:15.718Z,17.77
2023-03-23T17:07:17.895Z,14.02
2023-03-23T17:12:20.409Z,21.65
2023-03-23T17:17:24.383Z,14.10
2023-03-23T17:22:26.938Z,17.98
2023-03-23T17:27:30.145Z,16.00
2023-03-23T17:32:32.331Z,20.48
2023-03-23T17:37:36.505Z,18.27
2023-03-23T17:42:38.923Z,21.58
2023-03-23T17:47:41.316Z,20.35
2023-03-23T17:52:43.912Z,17.95
2023-03-23T17:57:46.289Z,19.55
2023-03-23T18:02:48.647Z,20.73
2023-03-23T18:07:51.461Z,20.05
2023-03-23T18:12:53.706Z,19.50
2023-03-23T18:17:57.275Z,22.63
2023-03-23T18:22:59.493Z,17.85
2023-03-23T18:28:04.831Z,19.25
2023-03-23T18:33:07.946Z,24.08
2023-03-23T18:38:10.936Z,20.08
2023-03-23T18:43:14.045Z,22.77
2023-03-23T18:48:16.520Z,22.17
2023-03-23T18:53:20.676Z,39.28
2023-03-23T18:58:22.873Z,23.33
2023-03-23T19:03:26.162Z,21.38
2023-03-23T19:08:29.689Z,24.25
2023-03-23T19:13:37.558Z,19.83
2023-03-23T19:18:41.082Z,23.70
2023-03-23T19:23:43.284Z,26.92
2023-03-23T19:29:23.345Z,26.20
2023-03-23T19:34:08.593Z,22.85
2023-03-23T19:39:11.293Z,23.13
2023-03-23T19:44:13.555Z,25.10
2023-03-23T19:49:15.904Z,24.00
2023-03-23T19:54:19.624Z,24.20
2023-03-23T19:59:22.548Z,22.73
2023-03-23T20:04:24.986Z,25.73
2023-03-23T20:09:27.209Z,25.70
2023-03-23T20:14:29.534Z,29.45
2023-03-23T20:19:31.755Z,27.45
2023-03-23T20:24:34.544Z,29.70
2023-03-23T20:29:39.493Z,26.13
2023-03-23T20:34:42.558Z,25.00
2023-03-23T20:39:46.348Z,31.95
2023-03-23T20:44:48.500Z,25.13
2023-03-23T20:49:52.830Z,27.30
2023-03-23T20:54:56.847Z,28.50
2023-03-23T20:59:59.128Z,24.10
2023-03-23T21:05:05.331Z,26.17
2023-03-23T21:10:07.723Z,26.88
2023-03-23T21:15:10.417Z,26.13
2023-03-23T21:20:13.632Z,29.52
2023-03-23T21:25:16.198Z,32.00
2023-03-23T21:30:19.400Z,31.67
2023-03-23T21:35:21.587Z,50.63
2023-03-23T21:40:23.799Z,31.25
2023-03-23T21:45:26.688Z,26.65
2023-03-23T21:50:30.351Z,32.65
2023-03-23T21:55:34.373Z,29.02
2023-03-23T22:00:36.704Z,32.05
2023-03-23T22:05:42.098Z,33.65
2023-03-23T22:11:00.792Z,27.95
2023-03-23T22:16:06.341Z,30.40
2023-03-23T22:21:08.594Z,30.00
2023-03-23T22:26:11.689Z,33.42
2023-03-23T22:31:19.112Z,35.50
2023-03-23T22:36:22.419Z,39.60
2023-03-23T22:41:30.601Z,38.78
2023-03-23T22:46:32.946Z,35.65
2023-03-23T22:51:37.270Z,34.67
2023-03-23T22:56:40.029Z,32.92
2023-03-23T23:01:42.632Z,30.17
2023-03-23T23:06:44.770Z,37.13
2023-03-23T23:11:47.324Z,34.60
2023-03-23T23:16:49.793Z,37.03
2023-03-23T23:21:51.929Z,38.13
2023-03-23T23:26:54.403Z,34.28
2023-03-23T23:31:56.676Z,36.17
2023-03-23T23:36:59.881Z,35.15
2023-03-23T23:42:02.210Z,33.15
2023-03-23T23:47:05.427Z,38.88
2023-03-23T23:52:08.743Z,36.67
2023-03-23T23:57:10.915Z,43.28
